Overview Statistics Trail Chart Weather Telemetry Raw packets
 

This is the latest recevied weather packets stored in our database for station/object OK4PZ-5. If no packets are shown the sender has not sent any weather packets the latest 10 day(s).

<< 1 2 3 4 >>
Time Temp. Humidity Pressure Rain* Wind** Luminosity Snow
1788619502 22.22° C 50% 1022 hPa 0 mm - - -
1788618602 21.67° C 51% 1022 hPa 0 mm - - -
1788617702 22.22° C 50% 1022 hPa 0 mm - - -
1788616802 20.56° C 53% 1022 hPa 0 mm - - -
1788615902 20.56° C 56% 1022 hPa 0 mm - - -
1788615003 21.11° C 53% 1022 hPa 0 mm - - -
1788614103 20.56° C 54% 1022 hPa 0 mm - - -
1788613202 21.67° C 53% 1023 hPa 0 mm - - -
1788612302 21.67° C 55% 1022 hPa 0 mm - - -
1788611402 21.11° C 56% 1023 hPa 0 mm - - -
1788610502 21.67° C 57% 1023 hPa 0 mm - - -
1788609602 20.56° C 58% 1023 hPa 0 mm - - -
1788608702 20° C 61% 1023 hPa 0 mm - - -
1788607803 19.44° C 63% 1023 hPa 0 mm - - -
1788606902 20° C 62% 1023 hPa 0 mm - - -
1788606002 20° C 61% 1023 hPa 0 mm - - -
1788605102 19.44° C 59% 1023 hPa 0 mm - - -
1788604202 19.44° C 61% 1023 hPa 0 mm - - -
1788603302 19.44° C 63% 1023 hPa 0 mm - - -
1788602402 18.89° C 66% 1023 hPa 0 mm - - -
1788601502 18.33° C 70% 1023 hPa 0 mm - - -
1788600602 17.78° C 73% 1023 hPa 0 mm - - -
1788599703 17.78° C 76% 1023 hPa 0 mm - - -
1788598802 17.22° C 79% 1023 hPa 0 mm - - -
1788597902 16.11° C 82% 1023 hPa 0 mm - - -

* Rain latest hour (hover to see other rain measurements)
** Current wind speed in m/s (hover to see current wind gust speed)